createdAt,value
2022-10-31T00:08:56.435Z,12.10
2022-10-31T00:19:03.494Z,12.10
2022-10-31T00:29:05.581Z,11.20
2022-10-31T00:39:07.043Z,12.27
2022-10-31T00:49:08.513Z,11.30
2022-10-31T00:59:11.590Z,12.97
2022-10-31T01:09:13.194Z,11.67
2022-10-31T01:19:14.756Z,11.30
2022-10-31T01:29:16.210Z,11.67
2022-10-31T01:39:20.163Z,10.40
2022-10-31T01:49:47.003Z,11.23
2022-10-31T01:59:52.144Z,20.03
2022-10-31T02:09:54.957Z,11.60
2022-10-31T02:20:01.116Z,22.67
2022-10-31T02:30:15.298Z,8.50
2022-10-31T02:40:23.696Z,9.83
2022-10-31T02:51:06.250Z,9.67
2022-10-31T03:01:26.430Z,24.47
2022-10-31T03:11:46.233Z,17.47
2022-10-31T03:21:56.895Z,15.97
2022-10-31T03:32:08.773Z,18.50
2022-10-31T03:42:15.661Z,30.87
2022-10-31T03:52:29.608Z,24.83
2022-10-31T04:02:35.017Z,32.93
2022-10-31T04:12:38.724Z,21.50
2022-10-31T04:22:54.752Z,17.83
2022-10-31T04:32:56.398Z,30.00
2022-10-31T04:42:58.514Z,42.70
2022-10-31T04:53:00.374Z,42.20
2022-10-31T05:03:06.143Z,31.20
2022-10-31T05:13:08.966Z,77.50
2022-10-31T05:23:29.390Z,66.00
2022-10-31T05:33:31.062Z,64.80
2022-10-31T05:43:38.373Z,65.30
2022-10-31T05:53:41.716Z,46.73
2022-10-31T06:03:43.408Z,41.33
2022-10-31T06:13:45.257Z,46.67
2022-10-31T06:23:59.830Z,12.00
2022-10-31T06:34:21.594Z,23.93
2022-10-31T06:44:24.487Z,49.20
2022-10-31T06:54:34.877Z,69.37
2022-10-31T07:04:40.199Z,28.07
2022-10-31T07:14:42.694Z,21.37
2022-10-31T07:24:44.301Z,33.07
2022-10-31T07:35:04.871Z,22.20
2022-10-31T07:45:20.194Z,21.67
2022-10-31T07:55:41.743Z,13.33
2022-10-31T08:05:45.732Z,22.07
2022-10-31T08:16:08.447Z,23.47
2022-10-31T08:26:15.157Z,23.43
2022-10-31T08:36:20.762Z,15.93
2022-10-31T08:46:42.553Z,16.23
2022-10-31T08:56:48.347Z,17.50
2022-10-31T09:07:21.027Z,26.93
2022-10-31T09:17:25.089Z,28.13
2022-10-31T09:27:46.568Z,23.27
2022-10-31T09:37:48.242Z,18.90
2022-10-31T09:48:06.512Z,22.73
2022-10-31T09:58:21.179Z,37.57
2022-10-31T10:08:28.425Z,32.23
2022-10-31T10:19:13.573Z,40.90
2022-10-31T10:29:37.104Z,37.10
2022-10-31T10:39:44.257Z,24.93
2022-10-31T10:49:52.888Z,22.17
2022-10-31T10:59:54.410Z,25.47
2022-10-31T11:10:05.927Z,21.00
2022-10-31T11:20:16.368Z,23.30
2022-10-31T11:30:21.982Z,22.63
2022-10-31T11:40:27.431Z,41.53
2022-10-31T11:50:37.719Z,23.27
2022-10-31T13:44:27.997Z,47.97
2022-10-31T13:54:34.679Z,52.63
2022-10-31T14:04:47.928Z,42.73
2022-10-31T14:14:53.507Z,54.37
2022-10-31T14:24:54.962Z,29.47
2022-10-31T14:35:00.874Z,38.03
2022-10-31T14:45:25.739Z,35.47
2022-10-31T14:55:27.370Z,36.43
2022-10-31T15:05:29.741Z,43.23
2022-10-31T15:15:32.391Z,39.87
2022-10-31T15:25:35.781Z,42.03
2022-10-31T15:35:37.212Z,39.23
2022-10-31T15:45:38.653Z,42.27
2022-10-31T15:55:54.779Z,43.30
2022-10-31T16:06:01.797Z,42.87
2022-10-31T16:16:34.278Z,43.03
2022-10-31T16:26:34.467Z,46.00
2022-10-31T16:36:40.115Z,39.43
2022-10-31T16:46:41.680Z,47.23
2022-10-31T16:56:43.955Z,50.47
2022-10-31T17:06:46.304Z,64.93
2022-10-31T17:16:47.809Z,49.20
2022-10-31T17:26:49.327Z,69.57
2022-10-31T17:36:52.249Z,80.20
2022-10-31T17:46:53.754Z,54.10
2022-10-31T17:56:55.212Z,123.53
2022-10-31T18:06:56.651Z,95.30
2022-10-31T18:16:58.429Z,46.20
2022-10-31T18:26:59.997Z,45.17
2022-10-31T18:37:01.525Z,69.47
2022-10-31T18:47:03.000Z,111.47
2022-10-31T18:57:04.460Z,98.80
2022-10-31T19:07:05.884Z,91.07
2022-10-31T19:17:07.361Z,123.53
2022-10-31T19:27:12.034Z,79.90
2022-10-31T19:37:13.540Z,76.00
2022-10-31T19:47:15.128Z,78.33
2022-10-31T19:57:16.593Z,67.93
2022-10-31T20:07:18.055Z,43.30
2022-10-31T20:17:19.487Z,42.33
2022-10-31T20:27:20.954Z,68.33
2022-10-31T20:37:22.408Z,44.43
2022-10-31T20:47:25.885Z,39.40
2022-10-31T20:57:27.474Z,56.60
2022-10-31T21:07:30.861Z,57.17
2022-10-31T21:17:32.295Z,65.87
2022-10-31T21:27:33.783Z,95.63
2022-10-31T21:37:35.235Z,50.83
2022-10-31T21:47:36.673Z,93.23
2022-10-31T21:57:38.315Z,43.77
2022-10-31T22:07:39.766Z,52.10
2022-10-31T22:17:41.241Z,44.27
2022-10-31T22:27:42.791Z,45.07
2022-10-31T22:37:44.417Z,38.90
2022-10-31T22:47:45.860Z,53.47
2022-10-31T22:57:47.325Z,39.67
2022-10-31T23:07:48.768Z,79.20
2022-10-31T23:17:50.249Z,75.07
2022-10-31T23:27:51.843Z,66.13
2022-10-31T23:37:53.303Z,62.63
2022-10-31T23:47:54.756Z,114.03
2022-10-31T23:57:56.325Z,48.67
